메인 페이지
METAR-TAF:

METAR-TAF

공항 :

포르투알레그리, 히우그란지두술, 브라질

위도: 30-01S, 경도: 051-13W, 고도: 47m

현재 날씨관측

예보는 35분 전, 21:00시(UTC)에 발표되었습니다.
남동5kt
온도 17°C
습도 82%
기압 1023 hPa
시정 10km 이상
고도 1000ft 상공 구름 조금
고도 1500ft 상공 구름 보통

METAR: SBCO 202100Z 13005KT 9999 FEW010 SCT015 17/14 Q1023

시각: 18:35 (21:35 UTC)

예보

예보는 6 시간 35분 전, 15:00시(UTC)에 발표되었습니다.
예보 대상 시간: 20일 18시부터 21일 06시까지 (UTC)
동남동4kt
시정 10km 이상
고도 1000ft 상공 구름 많음
고도 2500ft 상공 구름 많음
전환 중
20일 20시부터 20일 22시까지 (UTC)
고도 2500ft 상공 구름 보통
전환 중
21일 03시부터 21일 05시까지 (UTC)
북북서2kt
시정: 6000m
고도 600ft 상공 구름 많음

TAF: SBCO 201500Z 2018/2106 12004KT 9999 BKN010 BKN025 TX21/2018Z TN12/2105Z BECMG 2020/2022 SCT025 BECMG 2103/2105 34002KT 6000 BKN006 RMK PFP

4,000개 이상의 공항 관측 자료 및 예보 (METAR 및 TAF 보고).

지도상에서 검색 가능한 기상관측소가 노란 점과 빨간 점으로 표시되어 있습니다.

기상관측소 명을 보려면 표시 위로 마우스를 이동하세요.

날씨 관측과 예보를 보려면 클릭하세요.

지도 변경 : 확대하려면 엑스 표시가 있는 녹색 버튼, 축소하려면 빼기 표시가 있는 녹색 버튼, 다음 페이지의 지도를 보려면 녹색 화살표를 클릭하세요.


METAR-TAF: